createdAt,value
2019-03-08T00:01:47.177Z,38.63
2019-03-08T00:04:13.889Z,32.13
2019-03-08T00:06:40.655Z,31.27
2019-03-08T00:09:09.058Z,35.07
2019-03-08T00:11:35.908Z,35.20
2019-03-08T00:14:02.708Z,42.23
2019-03-08T00:16:29.673Z,65.23
2019-03-08T00:18:56.395Z,25.23
2019-03-08T00:21:23.248Z,39.97
2019-03-08T00:23:50.103Z,37.60
2019-03-08T00:26:16.985Z,29.23
2019-03-08T00:28:43.865Z,21.97
2019-03-08T00:31:10.642Z,22.30
2019-03-08T00:33:37.447Z,25.53
2019-03-08T00:36:04.191Z,27.40
2019-03-08T00:38:30.920Z,25.87
2019-03-08T00:40:57.671Z,22.17
2019-03-08T00:43:24.515Z,24.83
2019-03-08T00:45:51.379Z,19.03
2019-03-08T00:48:18.196Z,28.73
2019-03-08T00:50:44.934Z,27.80
2019-03-08T00:53:11.774Z,44.70
2019-03-08T00:55:38.519Z,17.60
2019-03-08T00:58:05.345Z,27.90
2019-03-08T01:00:32.088Z,35.67
2019-03-08T01:02:58.999Z,42.37
2019-03-08T01:05:25.974Z,21.90
2019-03-08T01:07:52.712Z,21.10
2019-03-08T01:10:19.478Z,26.90
2019-03-08T01:12:46.504Z,16.37
2019-03-08T01:15:13.226Z,42.67
2019-03-08T01:17:39.997Z,24.27
2019-03-08T01:20:06.840Z,26.23
2019-03-08T01:22:33.681Z,25.03
2019-03-08T01:25:00.404Z,16.57
2019-03-08T01:27:27.111Z,36.87
2019-03-08T01:29:54.092Z,25.17
2019-03-08T01:32:20.822Z,21.77
2019-03-08T01:34:47.588Z,17.43
2019-03-08T01:37:14.420Z,21.93
2019-03-08T01:39:41.260Z,21.53
2019-03-08T01:42:07.987Z,17.80
2019-03-08T01:44:34.839Z,22.17
2019-03-08T01:47:01.987Z,24.67
2019-03-08T01:49:28.833Z,25.87
2019-03-08T01:51:55.667Z,24.93
2019-03-08T01:54:22.512Z,18.87
2019-03-08T01:56:49.247Z,20.73
2019-03-08T01:59:16.067Z,27.03
2019-03-08T02:01:42.843Z,22.80
2019-03-08T02:04:09.773Z,19.57
2019-03-08T02:06:36.515Z,16.93
2019-03-08T02:09:03.354Z,16.67
2019-03-08T02:11:30.522Z,25.43
2019-03-08T02:13:57.346Z,25.30
2019-03-08T02:16:24.077Z,23.37
2019-03-08T02:18:50.813Z,19.83
2019-03-08T02:21:17.641Z,31.90
2019-03-08T02:23:44.806Z,19.77
2019-03-08T02:26:11.555Z,40.90
2019-03-08T02:28:38.283Z,25.73
2019-03-08T02:31:04.983Z,29.03
2019-03-08T02:33:31.776Z,20.63
2019-03-08T02:35:58.621Z,25.17
2019-03-08T02:38:25.660Z,12.73
2019-03-08T02:40:52.369Z,18.40
2019-03-08T02:43:19.231Z,28.73
2019-03-08T02:45:45.977Z,24.13
2019-03-08T02:48:12.888Z,13.10
2019-03-08T02:50:39.665Z,23.23
2019-03-08T02:53:06.391Z,17.43
2019-03-08T02:55:33.429Z,33.87
2019-03-08T02:58:00.182Z,29.27
2019-03-08T03:00:27.045Z,28.50
2019-03-08T03:02:53.923Z,18.13
2019-03-08T03:05:20.705Z,45.30
2019-03-08T03:07:47.442Z,23.17
2019-03-08T03:10:14.295Z,27.10
2019-03-08T03:12:41.129Z,25.43
2019-03-08T03:15:07.879Z,24.83
2019-03-08T03:17:34.614Z,22.07
2019-03-08T03:20:01.359Z,33.93
2019-03-08T03:22:28.087Z,28.03
2019-03-08T03:24:54.876Z,17.67
2019-03-08T03:27:21.714Z,36.40
2019-03-08T03:29:48.721Z,17.27
2019-03-08T03:32:15.571Z,21.60
2019-03-08T03:34:42.406Z,21.13
2019-03-08T03:37:09.251Z,19.00
2019-03-08T03:39:35.944Z,21.17
2019-03-08T03:42:02.734Z,24.20
2019-03-08T03:44:29.588Z,27.13
2019-03-08T03:46:56.604Z,45.80
2019-03-08T03:49:23.454Z,22.87
2019-03-08T03:51:50.297Z,27.70
2019-03-08T03:54:17.135Z,27.90
2019-03-08T03:56:43.995Z,37.80
2019-03-08T03:59:10.682Z,26.03
2019-03-08T04:01:37.450Z,40.53
2019-03-08T04:04:04.404Z,19.70
2019-03-08T04:06:31.139Z,26.00
2019-03-08T04:08:58.088Z,21.20
2019-03-08T04:11:24.823Z,33.50
2019-03-08T04:13:51.671Z,19.70
2019-03-08T04:16:18.508Z,23.43
2019-03-08T04:18:45.441Z,17.57
2019-03-08T04:21:12.409Z,18.97
2019-03-08T04:23:39.098Z,25.37
2019-03-08T04:26:05.968Z,23.97
2019-03-08T04:28:32.709Z,20.90
2019-03-08T04:30:59.455Z,23.53
2019-03-08T04:33:26.184Z,31.57
2019-03-08T04:35:52.933Z,21.83
2019-03-08T04:38:19.970Z,23.20
2019-03-08T04:40:46.718Z,37.00
2019-03-08T04:43:13.459Z,28.37
2019-03-08T04:45:40.305Z,24.57
2019-03-08T04:48:07.040Z,23.27
2019-03-08T04:50:33.875Z,27.23
2019-03-08T04:53:00.608Z,20.30
2019-03-08T04:55:27.768Z,36.30
2019-03-08T04:57:54.616Z,36.60
2019-03-08T05:00:21.347Z,23.90
2019-03-08T05:02:48.303Z,29.43
2019-03-08T05:05:15.027Z,26.63
2019-03-08T05:07:41.766Z,26.43
2019-03-08T05:10:08.509Z,19.20
2019-03-08T05:12:35.348Z,23.77
2019-03-08T05:15:02.193Z,24.30
2019-03-08T05:17:28.923Z,30.43
2019-03-08T05:19:55.687Z,29.73
2019-03-08T05:22:23.237Z,49.03
2019-03-08T05:24:50.173Z,22.17
2019-03-08T05:27:16.943Z,39.90
2019-03-08T05:29:43.753Z,23.33
2019-03-08T05:32:10.487Z,33.00
2019-03-08T05:34:37.190Z,50.97
2019-03-08T05:37:03.981Z,29.10
2019-03-08T05:39:30.817Z,24.83
2019-03-08T05:41:57.547Z,33.90
2019-03-08T05:44:24.243Z,21.90
2019-03-08T05:46:51.049Z,44.80
2019-03-08T05:49:18.105Z,36.73
2019-03-08T05:51:44.917Z,26.73
2019-03-08T05:54:11.625Z,26.53
2019-03-08T05:56:38.407Z,42.20
2019-03-08T05:59:05.130Z,68.97
2019-03-08T06:01:31.884Z,43.67
2019-03-08T06:03:58.647Z,50.60
2019-03-08T06:06:26.196Z,32.03
2019-03-08T06:08:52.966Z,23.13
2019-03-08T06:11:19.746Z,21.70
2019-03-08T06:13:46.491Z,32.63
2019-03-08T06:16:13.341Z,34.20
2019-03-08T06:18:40.087Z,42.10
2019-03-08T06:21:06.835Z,21.87
2019-03-08T06:23:33.764Z,27.40
2019-03-08T06:26:00.512Z,36.23
2019-03-08T06:28:27.541Z,49.13
2019-03-08T06:30:54.275Z,23.27
2019-03-08T06:33:21.028Z,35.70
2019-03-08T06:35:47.759Z,60.80
2019-03-08T06:38:14.500Z,35.57
2019-03-08T06:40:41.339Z,44.27
2019-03-08T06:43:08.496Z,48.27
2019-03-08T06:45:35.229Z,35.03
2019-03-08T06:48:01.974Z,49.17
2019-03-08T06:50:28.670Z,31.23
2019-03-08T06:52:55.459Z,34.30
2019-03-08T06:55:22.302Z,43.80
2019-03-08T06:57:49.236Z,37.90
2019-03-08T07:00:15.985Z,36.60
2019-03-08T07:02:42.926Z,31.97
2019-03-08T07:05:09.692Z,38.27
2019-03-08T07:07:36.408Z,45.53
2019-03-08T07:10:03.118Z,39.63
2019-03-08T07:12:29.879Z,52.37
2019-03-08T07:14:56.633Z,53.03
2019-03-08T07:17:23.453Z,43.70
2019-03-08T07:19:50.404Z,47.93
2019-03-08T07:22:17.266Z,37.77
2019-03-08T07:24:44.129Z,57.53
2019-03-08T07:27:10.931Z,39.63
2019-03-08T07:29:37.764Z,37.97
2019-03-08T07:32:04.506Z,49.90
2019-03-08T07:34:31.229Z,37.60
2019-03-08T07:36:58.386Z,26.90
2019-03-08T07:39:25.139Z,46.73
2019-03-08T07:41:51.972Z,35.20
2019-03-08T07:44:18.724Z,36.30
2019-03-08T07:46:45.553Z,48.67
2019-03-08T07:49:12.293Z,29.93
2019-03-08T07:51:39.062Z,37.37
2019-03-08T07:54:06.089Z,34.80
2019-03-08T07:56:32.783Z,40.43
2019-03-08T07:58:59.555Z,42.60
2019-03-08T08:01:26.303Z,44.87
2019-03-08T08:03:53.005Z,30.83
2019-03-08T08:06:19.777Z,22.17
2019-03-08T08:08:51.590Z,34.20
2019-03-08T08:11:15.002Z,25.83
2019-03-08T08:13:41.839Z,27.57
2019-03-08T08:16:08.570Z,46.40
2019-03-08T08:18:35.416Z,30.63
2019-03-08T08:21:02.114Z,30.30
2019-03-08T08:23:34.252Z,56.73
2019-03-08T08:25:57.290Z,42.60
2019-03-08T08:28:24.319Z,47.47
2019-03-08T08:30:51.270Z,60.73
2019-03-08T08:33:18.117Z,45.37
2019-03-08T08:35:44.945Z,56.53
2019-03-08T08:38:11.687Z,63.00
2019-03-08T08:40:38.432Z,36.27
2019-03-08T08:43:05.855Z,37.00
2019-03-08T08:45:32.685Z,54.50
2019-03-08T08:47:59.482Z,33.10
2019-03-08T08:50:26.196Z,32.13
2019-03-08T08:52:52.960Z,41.30
2019-03-08T08:55:19.887Z,36.37
2019-03-08T08:57:46.635Z,61.80
2019-03-08T09:00:13.378Z,41.37
2019-03-08T09:02:40.273Z,47.63
2019-03-08T09:05:07.046Z,23.17
2019-03-08T09:07:33.914Z,33.87
2019-03-08T09:10:00.743Z,29.33
2019-03-08T09:12:27.470Z,16.17
2019-03-08T09:14:54.215Z,29.30
2019-03-08T09:17:20.953Z,44.63
2019-03-08T09:19:47.999Z,35.97
2019-03-08T09:22:14.843Z,29.17
2019-03-08T09:24:41.581Z,21.07
2019-03-08T09:27:08.390Z,24.67
2019-03-08T09:29:41.169Z,38.97
2019-03-08T09:32:03.584Z,33.33
2019-03-08T09:34:30.376Z,20.57
2019-03-08T09:36:57.317Z,43.27
2019-03-08T09:39:24.056Z,44.00
2019-03-08T09:41:50.797Z,23.83
2019-03-08T09:44:17.639Z,18.10
2019-03-08T09:46:44.338Z,49.53
2019-03-08T09:49:11.130Z,24.47
2019-03-08T09:51:38.017Z,30.93
2019-03-08T09:54:05.332Z,27.87
2019-03-08T09:56:32.166Z,18.93
2019-03-08T09:58:58.858Z,24.07
2019-03-08T10:01:25.628Z,28.00
2019-03-08T10:03:52.521Z,23.63
2019-03-08T10:06:19.315Z,28.70
2019-03-08T10:08:46.170Z,53.77
2019-03-08T10:11:13.062Z,26.93
2019-03-08T10:13:39.850Z,26.13
2019-03-08T10:16:06.590Z,25.93
2019-03-08T10:18:33.285Z,27.17
2019-03-08T10:21:00.077Z,21.27
2019-03-08T10:23:26.802Z,35.47
2019-03-08T10:25:53.541Z,21.07
2019-03-08T10:28:20.797Z,45.63
2019-03-08T10:30:47.641Z,31.93
2019-03-08T10:33:14.478Z,27.67
2019-03-08T10:35:41.186Z,26.82
2019-03-08T10:38:07.959Z,21.65
2019-03-08T10:40:34.800Z,26.05
2019-03-08T10:43:01.544Z,20.48
2019-03-08T10:45:28.682Z,22.40
2019-03-08T10:47:56.316Z,30.05
2019-03-08T10:50:23.163Z,24.77
2019-03-08T10:52:49.955Z,20.68
2019-03-08T10:55:16.976Z,20.52
2019-03-08T10:57:43.812Z,23.95
2019-03-08T11:00:10.549Z,26.57
2019-03-08T11:02:37.520Z,29.00
2019-03-08T11:05:04.351Z,32.45
2019-03-08T11:07:31.189Z,26.02
2019-03-08T11:09:58.138Z,33.60
2019-03-08T11:12:25.591Z,16.15
2019-03-08T11:14:54.311Z,8.95
2019-03-08T11:17:22.022Z,13.60
2019-03-08T11:19:49.478Z,14.55
2019-03-08T11:22:16.376Z,23.57
2019-03-08T11:24:43.182Z,23.25
2019-03-08T11:27:10.035Z,14.87
2019-03-08T11:29:36.925Z,26.35
2019-03-08T11:32:03.688Z,22.13
2019-03-08T11:34:30.840Z,19.87
2019-03-08T11:36:57.573Z,37.00
2019-03-08T11:39:24.329Z,21.68
2019-03-08T11:41:51.083Z,17.82
2019-03-08T11:44:17.902Z,21.12
2019-03-08T11:46:45.152Z,21.52
2019-03-08T11:49:11.908Z,19.42
2019-03-08T11:51:38.765Z,30.48
2019-03-08T11:54:05.570Z,24.10
2019-03-08T11:56:32.311Z,20.95
2019-03-08T11:58:59.668Z,21.65
2019-03-08T12:01:26.440Z,35.10
2019-03-08T12:03:53.504Z,21.75
2019-03-08T12:06:20.306Z,19.55
2019-03-08T12:08:47.018Z,19.10
2019-03-08T12:11:13.894Z,15.70
2019-03-08T12:13:40.686Z,23.60
2019-03-08T12:16:07.464Z,37.65
2019-03-08T12:18:34.359Z,10.98
2019-03-08T12:21:01.459Z,27.15
2019-03-08T12:23:28.489Z,18.02
2019-03-08T12:25:55.235Z,9.25
2019-03-08T12:28:21.978Z,13.05
2019-03-08T12:30:48.706Z,20.23
2019-03-08T12:33:15.457Z,30.90
2019-03-08T12:35:42.397Z,23.92
2019-03-08T12:38:09.237Z,40.28
2019-03-08T12:40:35.977Z,21.75
2019-03-08T12:43:07.978Z,32.58
2019-03-08T12:45:31.197Z,29.80
2019-03-08T12:47:57.984Z,17.65
2019-03-08T12:50:24.791Z,33.02
2019-03-08T12:52:51.643Z,18.80
2019-03-08T12:55:18.519Z,22.85
2019-03-08T12:57:45.306Z,23.25
2019-03-08T13:00:12.355Z,31.97
2019-03-08T13:02:39.197Z,20.45
2019-03-08T13:05:05.897Z,23.60
2019-03-08T13:07:32.672Z,30.17
2019-03-08T13:09:59.574Z,23.65
2019-03-08T13:12:26.583Z,28.65
2019-03-08T13:14:53.561Z,30.57
2019-03-08T13:17:20.336Z,13.93
2019-03-08T13:19:47.095Z,13.35
2019-03-08T13:22:13.925Z,21.07
2019-03-08T13:24:41.371Z,26.62
2019-03-08T13:27:08.064Z,11.45
2019-03-08T13:29:34.855Z,20.08
2019-03-08T13:32:01.599Z,18.07
2019-03-08T13:34:28.648Z,13.30
2019-03-08T13:36:55.408Z,16.50
2019-03-08T13:39:22.225Z,17.15
2019-03-08T13:41:48.971Z,19.07
2019-03-08T13:44:15.694Z,25.92
2019-03-08T13:46:42.444Z,22.52
2019-03-08T13:49:09.323Z,19.98
2019-03-08T13:51:36.340Z,26.82
2019-03-08T13:54:03.192Z,36.20
2019-03-08T13:56:30.004Z,17.92
2019-03-08T13:58:56.754Z,20.37
2019-03-08T14:01:23.546Z,24.25
2019-03-08T14:03:50.331Z,16.10
2019-03-08T14:06:17.062Z,34.08
2019-03-08T14:08:44.074Z,24.37
2019-03-08T14:11:10.866Z,39.83
2019-03-08T14:13:37.705Z,33.63
2019-03-08T14:16:04.552Z,33.48
2019-03-08T14:18:31.291Z,19.73
2019-03-08T14:20:58.427Z,29.30
2019-03-08T14:23:25.128Z,23.65
2019-03-08T14:25:52.235Z,14.20
2019-03-08T14:28:18.956Z,24.92
2019-03-08T14:30:45.670Z,20.17
2019-03-08T14:33:12.428Z,22.13
2019-03-08T14:35:39.179Z,24.23
2019-03-08T14:38:07.734Z,22.87
2019-03-08T14:40:34.552Z,19.70
2019-03-08T14:43:01.540Z,25.05
2019-03-08T14:45:28.280Z,32.28
2019-03-08T14:47:55.041Z,13.32
2019-03-08T14:50:21.972Z,26.42
2019-03-08T14:52:48.700Z,20.65
2019-03-08T14:55:19.111Z,19.00
2019-03-08T14:57:43.946Z,24.85
2019-03-08T15:00:10.760Z,24.05
2019-03-08T15:02:37.610Z,21.55
2019-03-08T15:05:11.075Z,24.75
2019-03-08T15:07:32.828Z,25.75
2019-03-08T15:10:02.423Z,45.15
2019-03-08T15:12:27.950Z,32.35
2019-03-08T15:14:54.789Z,55.90
2019-03-08T15:17:21.642Z,29.47
2019-03-08T15:19:48.471Z,32.53
2019-03-08T15:22:15.317Z,34.30
2019-03-08T15:24:42.150Z,31.47
2019-03-08T15:27:08.987Z,38.63
2019-03-08T15:29:36.151Z,49.87
2019-03-08T15:32:02.874Z,47.00
2019-03-08T15:34:29.621Z,29.73
2019-03-08T15:36:56.374Z,84.30
2019-03-08T15:39:23.201Z,44.13
2019-03-08T15:41:49.901Z,51.97
2019-03-08T15:44:16.677Z,44.80
2019-03-08T15:46:43.523Z,25.00
2019-03-08T15:49:10.268Z,37.33
2019-03-08T15:51:37.098Z,39.93
2019-03-08T15:54:03.946Z,33.83
2019-03-08T15:56:30.674Z,38.83
2019-03-08T15:58:57.426Z,52.63
2019-03-08T16:01:24.470Z,33.70
2019-03-08T16:03:51.311Z,36.90
2019-03-08T16:06:19.678Z,58.00
2019-03-08T16:08:46.573Z,37.23
2019-03-08T16:11:13.383Z,34.57
2019-03-08T16:13:40.225Z,61.17
2019-03-08T16:16:07.350Z,50.57
2019-03-08T16:18:34.089Z,59.57
2019-03-08T16:21:00.968Z,73.57
2019-03-08T16:23:27.780Z,44.00
2019-03-08T16:25:54.534Z,31.73
2019-03-08T16:28:21.385Z,57.70
2019-03-08T16:30:48.964Z,41.80
2019-03-08T16:33:15.660Z,43.10
2019-03-08T16:35:42.523Z,61.80
2019-03-08T16:38:09.355Z,69.80
2019-03-08T16:40:36.196Z,41.20
2019-03-08T16:43:03.749Z,50.87
2019-03-08T16:45:31.305Z,38.07
2019-03-08T16:47:58.035Z,25.77
2019-03-08T16:50:26.038Z,57.33
2019-03-08T16:52:53.274Z,44.67
2019-03-08T16:55:21.382Z,37.57
2019-03-08T16:57:48.483Z,37.73
2019-03-08T17:00:15.430Z,39.23
2019-03-08T17:02:42.283Z,26.13
2019-03-08T17:05:09.217Z,29.23
2019-03-08T17:07:36.063Z,40.90
2019-03-08T17:10:02.795Z,18.13
2019-03-08T17:12:29.527Z,42.30
2019-03-08T17:14:56.621Z,26.23
2019-03-08T17:17:23.427Z,32.97
2019-03-08T17:19:50.167Z,27.87
2019-03-08T17:22:17.007Z,37.37
2019-03-08T17:24:43.850Z,24.67
2019-03-08T17:27:10.613Z,34.13
2019-03-08T17:29:37.421Z,36.60
2019-03-08T17:32:04.203Z,30.53
2019-03-08T17:34:31.021Z,31.50
2019-03-08T17:36:57.842Z,42.40
2019-03-08T17:39:24.784Z,37.27
2019-03-08T17:41:51.585Z,34.20
2019-03-08T17:44:18.382Z,39.57
2019-03-08T17:46:45.111Z,36.53
2019-03-08T17:49:11.856Z,27.67
2019-03-08T17:51:38.606Z,39.80
2019-03-08T17:54:05.795Z,27.77
2019-03-08T17:56:32.597Z,33.10
2019-03-08T17:58:59.412Z,36.27
2019-03-08T18:01:26.325Z,28.40
2019-03-08T18:03:54.791Z,45.77
2019-03-08T18:06:21.551Z,43.70
2019-03-08T18:08:48.222Z,31.97
2019-03-08T18:11:15.067Z,42.03
2019-03-08T18:13:41.928Z,41.17
2019-03-08T18:16:09.473Z,44.07
2019-03-08T18:18:36.346Z,34.73
2019-03-08T18:21:03.073Z,41.13
2019-03-08T18:23:29.896Z,31.70
2019-03-08T18:25:56.736Z,39.20
2019-03-08T18:28:24.087Z,40.03
2019-03-08T18:30:51.430Z,31.43
2019-03-08T18:33:18.788Z,31.17
2019-03-08T18:35:45.563Z,39.13
2019-03-08T18:38:12.361Z,36.83
2019-03-08T18:40:39.186Z,38.00
2019-03-08T18:43:05.976Z,36.60
2019-03-08T18:45:33.405Z,49.20
2019-03-08T18:48:00.269Z,50.63
2019-03-08T18:50:27.096Z,52.23
2019-03-08T18:52:54.038Z,37.40
2019-03-08T18:55:20.865Z,39.83
2019-03-08T18:57:47.787Z,72.50
2019-03-08T19:00:14.972Z,44.87
2019-03-08T19:02:42.428Z,42.17
2019-03-08T19:05:09.174Z,44.83
2019-03-08T19:07:36.112Z,48.00
2019-03-08T19:10:11.950Z,43.90
2019-03-08T19:12:38.690Z,50.37
2019-03-08T19:15:05.482Z,43.63
2019-03-08T19:17:32.251Z,42.93
2019-03-08T19:19:59.018Z,42.30
2019-03-08T19:22:26.661Z,63.97
2019-03-08T19:24:53.820Z,44.80
2019-03-08T19:27:20.534Z,46.97
2019-03-08T19:29:47.309Z,54.57
2019-03-08T19:32:14.258Z,53.23
2019-03-08T19:34:40.987Z,49.63
2019-03-08T19:37:07.750Z,66.80
2019-03-08T19:39:34.598Z,43.13
2019-03-08T19:42:01.285Z,73.80
2019-03-08T19:44:28.115Z,61.00
2019-03-08T19:46:55.091Z,57.77
2019-03-08T19:49:21.812Z,59.53
2019-03-08T19:51:48.577Z,69.10
2019-03-08T19:54:15.326Z,40.03
2019-03-08T19:56:42.672Z,40.50
2019-03-08T19:59:09.504Z,45.50
2019-03-08T20:01:36.245Z,42.73
2019-03-08T20:04:02.989Z,38.07
2019-03-08T20:06:29.846Z,62.07
2019-03-08T20:08:56.675Z,46.10
2019-03-08T20:11:23.518Z,57.40
2019-03-08T20:13:50.513Z,63.23
2019-03-08T20:16:17.397Z,70.27
2019-03-08T20:18:44.162Z,46.53
2019-03-08T20:21:11.043Z,58.50
2019-03-08T20:23:37.853Z,39.93
2019-03-08T20:26:04.785Z,55.73
2019-03-08T20:28:31.923Z,71.13
2019-03-08T20:30:58.674Z,49.43
2019-03-08T20:33:25.503Z,58.90
2019-03-08T20:35:52.237Z,64.53
2019-03-08T20:38:19.248Z,65.87
2019-03-08T20:40:46.222Z,57.73
2019-03-08T20:43:13.229Z,57.87
2019-03-08T20:45:40.044Z,53.00
2019-03-08T20:48:06.858Z,53.83
2019-03-08T20:50:33.847Z,68.43
2019-03-08T20:53:00.630Z,64.03
2019-03-08T20:55:27.532Z,63.70
2019-03-08T20:57:54.568Z,61.37
2019-03-08T21:00:21.469Z,58.43
2019-03-08T21:02:48.219Z,67.00
2019-03-08T21:05:15.111Z,74.57
2019-03-08T21:07:41.948Z,65.00
2019-03-08T21:10:08.937Z,59.87
2019-03-08T21:12:35.784Z,46.83
2019-03-08T21:15:02.823Z,48.93
2019-03-08T21:17:29.635Z,56.73
2019-03-08T21:19:56.413Z,54.67
2019-03-08T21:22:23.272Z,50.87
2019-03-08T21:24:50.189Z,45.13
2019-03-08T21:27:17.245Z,57.37
2019-03-08T21:29:44.160Z,58.53
2019-03-08T21:32:10.927Z,60.47
2019-03-08T21:34:37.790Z,44.97
2019-03-08T21:37:04.711Z,51.40
2019-03-08T21:39:31.445Z,48.57
2019-03-08T21:41:58.412Z,54.47
2019-03-08T21:44:25.146Z,50.47
2019-03-08T21:46:51.989Z,40.93
2019-03-08T21:49:18.717Z,41.83
2019-03-08T21:51:45.555Z,35.67
2019-03-08T21:54:12.399Z,40.10
2019-03-08T21:56:39.091Z,48.43
2019-03-08T21:59:05.981Z,42.10
2019-03-08T22:01:33.118Z,38.80
2019-03-08T22:03:59.856Z,55.17
2019-03-08T22:06:26.595Z,53.33
2019-03-08T22:08:53.339Z,38.87
2019-03-08T22:11:20.187Z,43.23
2019-03-08T22:13:46.920Z,49.53
2019-03-08T22:16:13.667Z,45.20
2019-03-08T22:18:40.512Z,39.93
2019-03-08T22:21:07.447Z,40.13
2019-03-08T22:23:34.315Z,36.73
2019-03-08T22:26:01.149Z,44.70
2019-03-08T22:28:28.025Z,47.07
2019-03-08T22:30:54.874Z,38.83
2019-03-08T22:33:21.660Z,45.00
2019-03-08T22:35:48.557Z,43.47
2019-03-08T22:38:15.356Z,38.07
2019-03-08T22:40:42.314Z,40.10
2019-03-08T22:43:09.049Z,48.03
2019-03-08T22:45:35.882Z,43.97
2019-03-08T22:48:03.115Z,50.63
2019-03-08T22:50:30.398Z,41.40
2019-03-08T22:52:57.636Z,34.53
2019-03-08T22:55:24.380Z,33.77
2019-03-08T22:57:51.091Z,27.77
2019-03-08T23:00:18.450Z,39.63
2019-03-08T23:02:45.188Z,25.97
2019-03-08T23:05:11.912Z,25.90
2019-03-08T23:07:38.672Z,29.47
2019-03-08T23:10:05.412Z,29.17
2019-03-08T23:12:32.244Z,26.73
2019-03-08T23:14:58.980Z,25.37
2019-03-08T23:17:25.726Z,27.23
2019-03-08T23:19:52.589Z,25.73
2019-03-08T23:22:19.412Z,36.33
2019-03-08T23:24:46.250Z,38.17
2019-03-08T23:27:12.988Z,32.10
2019-03-08T23:29:39.839Z,26.17
2019-03-08T23:32:06.676Z,32.27
2019-03-08T23:34:33.708Z,36.23
2019-03-08T23:37:00.560Z,24.63
2019-03-08T23:39:27.605Z,42.57
2019-03-08T23:41:54.509Z,25.83
2019-03-08T23:44:21.315Z,33.20
2019-03-08T23:46:48.023Z,24.17
2019-03-08T23:49:15.184Z,28.70
2019-03-08T23:51:41.915Z,23.10
2019-03-08T23:54:08.660Z,23.57
2019-03-08T23:56:35.404Z,27.57
2019-03-08T23:59:02.141Z,24.83
